Terminal Aerodrome Forecast
Issued by NWS

Home | Current Version | Previous Version | Text Only | Print | Product List | Glossary Off
Versions: 1 2 3 4 5 6 7 8 9 10 11 12 13 14 15 16 17 18 19 20 21 22 23 24 25 26

000
FTUS43 KBIS 050758 AAA
TAFMOT
TAF AMD
KMOT 050758Z 0508/0606 36006KT 4SM BR SCT050
     FM051300 35013KT P6SM -SHRA VCTS SCT025 BKN035 BKN060CB
     FM051900 01015KT P6SM SCT035 BKN070
     FM060100 33007KT P6SM SCT070=

USA.gov is the U.S. government's official web portal to all federal, state and local government web resources and services.